Arrantzale — EBVT — position and weather

sailwx.info

Track history (hours):
 
Tides and Currents Weather Stations Pressure Air Temp Water Temp Dewpoint Dewpoint Depression Visibility Wind Speed Wind Dir Waves Ship Positions

Arrantzale

Last reported at 2015-Aug-31 02:33 UTC. Time now 2015-Sep-01 01:56 UTC.
Position N 43°24' W 001°47'.

Length 32 m.

Type: Fishing. MMSI: 224065290.

Date/timePositionNaut miles runAvg speedWind from/ knotsBaromVisibWave heightAir tempDewpointWater temp
2015-Aug-31 02:33N 43°24' W 001°47'1 0.9
2015-Aug-31 01:33N 43°23' W 001°48'0 0.0
2015-Aug-31 00:34N 43°23' W 001°48'0 0.0
2015-Aug-30 23:33N 43°23' W 001°48'70 8.7
2015-Aug-30 15:31N 44°21' W 002°43'19 4.7
2015-Aug-30 11:29N 44°36' W 002°59'  
2015-Aug-27 12:07N 44°15' W 003°37'6 8.8
2015-Aug-27 11:25N 44°10' W 003°34'84 6.5
2015-Aug-26 22:33N 43°36' W 005°20'8 6.0
2015-Aug-26 21:17N 43°39' W 005°30'2 1.7
2015-Aug-26 20:08N 43°39' W 005°33'1 1.1
2015-Aug-26 19:33N 43°40' W 005°33'6 4.7
2015-Aug-26 18:18N 43°45' W 005°35'100 6.7
2015-Aug-26 03:25N 43°31' W 003°18'0 0.5
2015-Aug-26 02:30N 43°32' W 003°19'63 2.6
2015-Aug-25 02:13N 43°28' W 001°53'5 7.9
2015-Aug-25 01:34N 43°24' W 001°47'1 1.1
2015-Aug-25 00:33N 43°23' W 001°47'0 0.1
2015-Aug-24 23:33N 43°23' W 001°48'0 0.0
2015-Aug-24 22:33N 43°23' W 001°48'0 0.0
2015-Aug-24 21:33N 43°23' W 001°48'0 0.0
2015-Aug-24 20:31N 43°23' W 001°48'0 0.0
2015-Aug-24 19:33N 43°23' W 001°48'0 0.0
2015-Aug-24 18:33N 43°23' W 001°48'0 0.0
2015-Aug-24 17:33N 43°23' W 001°48'0 0.0
2015-Aug-24 16:33N 43°23' W 001°48'0 0.0
2015-Aug-24 15:33N 43°23' W 001°48'0 0.0
2015-Aug-24 14:32N 43°23' W 001°48'0 0.0
2015-Aug-24 13:33N 43°23' W 001°48'0 0.0
2015-Aug-24 12:33N 43°23' W 001°48'0 0.0
2015-Aug-24 11:33N 43°23' W 001°48'0 0.0
2015-Aug-24 10:30N 43°23' W 001°48'0 0.0
2015-Aug-24 09:32N 43°23' W 001°48'0 0.0
2015-Aug-24 08:32N 43°23' W 001°48'0 0.0
2015-Aug-24 07:33N 43°23' W 001°48'0 0.0
2015-Aug-24 06:33N 43°23' W 001°48'0 0.0
2015-Aug-24 05:32N 43°23' W 001°48'0 0.0
2015-Aug-24 04:33N 43°23' W 001°48'0 0.0
2015-Aug-24 03:33N 43°23' W 001°48'0 0.0
2015-Aug-24 02:33N 43°23' W 001°48'0 0.0
2015-Aug-24 01:33N 43°23' W 001°48'0 0.0
2015-Aug-24 00:33N 43°23' W 001°48'0 0.0
2015-Aug-23 23:33N 43°23' W 001°48'0 0.0
2015-Aug-23 22:33N 43°23' W 001°48'0 0.0
2015-Aug-23 21:34N 43°23' W 001°48'0 0.0
2015-Aug-23 20:33N 43°23' W 001°48'0 0.0
2015-Aug-23 19:33N 43°23' W 001°48'0 0.0
2015-Aug-23 18:33N 43°23' W 001°48'0 0.0
2015-Aug-23 17:32N 43°23' W 001°48'0 0.0
2015-Aug-23 16:33N 43°23' W 001°48'0 0.0
2015-Aug-23 15:33N 43°23' W 001°48'0 0.0
2015-Aug-23 14:33N 43°23' W 001°48'0 0.0
2015-Aug-23 13:33N 43°23' W 001°48'0 0.0
2015-Aug-23 12:33N 43°23' W 001°48'0 0.0
2015-Aug-23 11:33N 43°23' W 001°48'0 0.0
2015-Aug-23 10:34N 43°23' W 001°48'0 0.0
2015-Aug-23 09:33N 43°23' W 001°48'102 2.4
2015-Aug-21 15:32N 44°34' W 003°29'8 8.3
2015-Aug-21 14:33N 44°42' W 003°27'0 0.3
2015-Aug-21 13:13N 44°42' W 003°26'3 5.2
2015-Aug-21 12:33N 44°41' W 003°30'9 8.6
2015-Aug-21 11:33N 44°44' W 003°42'39 6.3
2015-Aug-21 05:17N 45°14' W 004°18'1 1.2
2015-Aug-21 04:32N 45°15' W 004°18'1 0.7
2015-Aug-21 03:12N 45°15' W 004°16'  
Track history (hours):
 
Tides and Currents Weather Stations Pressure Air Temp Water Temp Dewpoint Dewpoint Depression Visibility Wind Speed Wind Dir Waves Ship Positions

Arrantzale

Last reported at 2015-Aug-31 02:33 UTC. Time now 2015-Sep-01 01:56 UTC.
Position N 43°24' W 001°47'.

Length 32 m.

Type: Fishing. MMSI: 224065290.

Date/timePositionNaut miles runAvg speedWind from/ knotsBaromVisibWave heightAir tempDewpointWater temp
2015-Aug-31 02:33N 43°24' W 001°47'1 0.9
2015-Aug-31 01:33N 43°23' W 001°48'0 0.0
2015-Aug-31 00:34N 43°23' W 001°48'0 0.0
2015-Aug-30 23:33N 43°23' W 001°48'70 8.7
2015-Aug-30 15:31N 44°21' W 002°43'19 4.7
2015-Aug-30 11:29N 44°36' W 002°59'  
2015-Aug-27 12:07N 44°15' W 003°37'6 8.8
2015-Aug-27 11:25N 44°10' W 003°34'84 6.5
2015-Aug-26 22:33N 43°36' W 005°20'8 6.0
2015-Aug-26 21:17N 43°39' W 005°30'2 1.7
2015-Aug-26 20:08N 43°39' W 005°33'1 1.1
2015-Aug-26 19:33N 43°40' W 005°33'6 4.7
2015-Aug-26 18:18N 43°45' W 005°35'100 6.7
2015-Aug-26 03:25N 43°31' W 003°18'0 0.5
2015-Aug-26 02:30N 43°32' W 003°19'63 2.6
2015-Aug-25 02:13N 43°28' W 001°53'5 7.9
2015-Aug-25 01:34N 43°24' W 001°47'1 1.1
2015-Aug-25 00:33N 43°23' W 001°47'0 0.1
2015-Aug-24 23:33N 43°23' W 001°48'0 0.0
2015-Aug-24 22:33N 43°23' W 001°48'0 0.0
2015-Aug-24 21:33N 43°23' W 001°48'0 0.0
2015-Aug-24 20:31N 43°23' W 001°48'0 0.0
2015-Aug-24 19:33N 43°23' W 001°48'0 0.0
2015-Aug-24 18:33N 43°23' W 001°48'0 0.0
2015-Aug-24 17:33N 43°23' W 001°48'0 0.0
2015-Aug-24 16:33N 43°23' W 001°48'0 0.0
2015-Aug-24 15:33N 43°23' W 001°48'0 0.0
2015-Aug-24 14:32N 43°23' W 001°48'0 0.0
2015-Aug-24 13:33N 43°23' W 001°48'0 0.0
2015-Aug-24 12:33N 43°23' W 001°48'0 0.0
2015-Aug-24 11:33N 43°23' W 001°48'0 0.0
2015-Aug-24 10:30N 43°23' W 001°48'0 0.0
2015-Aug-24 09:32N 43°23' W 001°48'0 0.0
2015-Aug-24 08:32N 43°23' W 001°48'0 0.0
2015-Aug-24 07:33N 43°23' W 001°48'0 0.0
2015-Aug-24 06:33N 43°23' W 001°48'0 0.0
2015-Aug-24 05:32N 43°23' W 001°48'0 0.0
2015-Aug-24 04:33N 43°23' W 001°48'0 0.0
2015-Aug-24 03:33N 43°23' W 001°48'0 0.0
2015-Aug-24 02:33N 43°23' W 001°48'0 0.0
2015-Aug-24 01:33N 43°23' W 001°48'0 0.0
2015-Aug-24 00:33N 43°23' W 001°48'0 0.0
2015-Aug-23 23:33N 43°23' W 001°48'0 0.0
2015-Aug-23 22:33N 43°23' W 001°48'0 0.0
2015-Aug-23 21:34N 43°23' W 001°48'0 0.0
2015-Aug-23 20:33N 43°23' W 001°48'0 0.0
2015-Aug-23 19:33N 43°23' W 001°48'0 0.0
2015-Aug-23 18:33N 43°23' W 001°48'0 0.0
2015-Aug-23 17:32N 43°23' W 001°48'0 0.0
2015-Aug-23 16:33N 43°23' W 001°48'0 0.0
2015-Aug-23 15:33N 43°23' W 001°48'0 0.0
2015-Aug-23 14:33N 43°23' W 001°48'0 0.0
2015-Aug-23 13:33N 43°23' W 001°48'0 0.0
2015-Aug-23 12:33N 43°23' W 001°48'0 0.0
2015-Aug-23 11:33N 43°23' W 001°48'0 0.0
2015-Aug-23 10:34N 43°23' W 001°48'0 0.0
2015-Aug-23 09:33N 43°23' W 001°48'102 2.4
2015-Aug-21 15:32N 44°34' W 003°29'8 8.3
2015-Aug-21 14:33N 44°42' W 003°27'0 0.3
2015-Aug-21 13:13N 44°42' W 003°26'3 5.2
2015-Aug-21 12:33N 44°41' W 003°30'9 8.6
2015-Aug-21 11:33N 44°44' W 003°42'39 6.3
2015-Aug-21 05:17N 45°14' W 004°18'1 1.2
2015-Aug-21 04:32N 45°15' W 004°18'1 0.7
2015-Aug-21 03:12N 45°15' W 004°16'  

Dump ship's entire track history